Afton, Tennessee
Current Conditions -  °F | °C
As of 7:53 AM on Sunday 23 Nov 2014 (Local Time) from KTRI Reporting Station
Broken Clouds Broken Clouds  
Wind Chill:   Ceiling: 9000
Heat Index:   Visibility: 10mi
Dew Point: -1°   Wind: 3mph
Humidity: 70%   Direction: 60°ENE
Pressure: 30.11"   Gusts: NA
Location:  36.19°N, 82.74°W
Report Text: KTRI 231253Z 06003KT 10SM BKN090 BKN110 04/M01 A3011 RMK AO2 SLP194 T00441006
Loading
Personal Weather Stations






























Interactive Weather Map New forecast layout! Learn more

10-Day Weather Forecast

Advertisements
Track Severe Weather on mobile